Latest Weather Observations for Montague Island

IDN60901

Issued at 8:51 pm EDT Friday 20 January 2017 (issued every 10 minutes, with the page automatically refreshed every 10 minutes)

About weather observations | Map of Canberra area stations | Latest observations for Canberra area | Other Formats
Station Details ID: 069017 Name: MONTAGUE ISLAND LIGHTHOUSE Lat: -36.25 Lon: 150.23 Height: 52.0 m
Data from the previous 72 hours. | See also: Recent months at Montague Island
Date/Time
EDT
Temp
°C
App
Temp
°C
Dew
Point
°C
Rel
Hum
%
Delta-T
°C
Wind Press
QNH
hPa
Press
MSL
hPa
Rain since
9am
mm
Dir  Spd
km/h
Gust
km/h
Spd
kts
Gust
kts
20/08:30pm 22.6 13.7 12.0 51 6.0 SSW 50 69 27 37 996.9 996.7 1.2
20/08:24pm 22.6 14.1 12.0 51 6.0 SSW 48 69 26 37 996.3 996.1 1.2
20/08:00pm 23.5 16.5 13.7 54 5.8 SSW 43 57 23 31 995.5 995.3 1.2
20/07:30pm 23.1 17.8 16.4 66 4.1 S 39 48 21 26 994.9 994.7 1.2
20/07:00pm 22.6 18.5 17.3 72 3.3 S 35 43 19 23 994.0 993.8 1.2
20/06:30pm 22.4 19.4 17.8 75 2.9 S 30 39 16 21 993.1 993.0 1.2
20/06:00pm 22.8 19.6 18.1 75 3.0 S 32 41 17 22 992.7 992.5 1.2
20/05:30pm 23.0 20.5 19.8 82 2.1 SSE 32 39 17 21 992.4 992.2 1.2
20/05:00pm 22.9 20.5 19.9 83 1.9 SSE 32 39 17 21 991.9 991.7 1.2
20/04:30pm 22.1 19.5 20.0 88 1.4 S 33 43 18 23 991.8 991.6 1.2
20/04:00pm 22.8 20.3 20.9 89 1.3 S 35 43 19 23 990.8 990.6 0.8
20/03:30pm 25.9 24.0 20.2 71 3.7 SSW 30 39 16 21 989.6 989.4 0.2
20/03:15pm 27.5 27.6 20.3 65 4.7 SSW 20 39 11 21 989.5 989.3 0.2
20/03:00pm 28.5 32.1 23.0 72 3.8 N 9 15 5 8 988.8 988.6 0.2
20/02:30pm 25.6 26.2 22.1 81 2.3 NNE 22 28 12 15 988.7 988.5 0.2
20/02:00pm 24.7 23.7 22.0 85 1.8 NNE 30 37 16 20 988.8 988.6 0.2
20/01:30pm 24.5 22.7 21.2 82 2.2 NNE 32 41 17 22 988.8 988.6 0.2
20/01:00pm 24.9 23.5 21.2 80 2.5 NNE 30 39 16 21 989.4 989.2 0.2
20/12:30pm 23.7 21.1 20.6 83 2.0 NNE 35 43 19 23 989.9 989.7 0.2
20/12:00pm 22.5 18.0 19.9 85 1.7 NNE 43 50 23 27 989.7 989.5 0.2
20/11:30am 22.1 17.2 19.1 83 1.9 NNE 43 48 23 26 990.6 990.4 0.2
20/11:00am 21.7 17.8 18.7 83 1.9 NNE 37 44 20 24 992.4 992.2 0.2
20/10:30am 21.6 18.5 18.8 84 1.8 N 33 41 18 22 993.7 993.5 0.2
20/10:00am 21.3 18.6 18.5 84 1.8 N 30 39 16 21 994.8 994.6 0.2
20/09:30am 20.5 18.5 18.4 88 1.3 N 26 35 14 19 996.2 996.0 0.2
20/09:00am 21.1 18.7 18.3 84 1.8 N 28 37 15 20 996.8 996.6 0.0
20/08:30am 21.4 18.0 17.8 80 2.2 N 32 43 17 23 997.1 996.9 0.0
20/08:00am 21.3 16.6 17.7 80 2.2 N 39 48 21 26 997.4 997.2 0.0
20/07:30am 20.6 17.4 18.2 86 1.5 N 32 41 17 22 998.2 998.0 0.0
20/07:00am 21.3 17.8 17.5 79 2.4 N 32 43 17 23 999.1 998.9 0.0
20/06:30am 21.3 18.3 17.7 80 2.2 N 30 43 16 23 999.2 999.0 0.0
20/06:00am 21.3 17.8 17.5 79 2.4 N 32 44 17 24 999.4 999.2 0.0
20/05:30am 21.4 18.4 17.8 80 2.2 N 30 41 16 22 1000.3 1000.1 0.0
20/05:00am 21.3 18.1 17.3 78 2.5 N 30 39 16 21 1001.2 1001.0 0.0
20/04:30am 21.0 17.6 16.8 77 2.6 N 30 39 16 21 1001.7 1001.5 0.0
20/04:00am 21.0 17.0 16.8 77 2.6 N 33 44 18 24 1002.6 1002.4 0.0
20/03:30am 21.1 16.4 16.9 77 2.6 N 37 46 20 25 1002.9 1002.7 0.0
20/03:00am 21.4 17.8 17.6 79 2.4 N 33 44 18 24 1003.1 1002.9 0.0
20/02:30am 21.4 17.4 17.6 79 2.3 N 35 48 19 26 1004.3 1004.1 0.0
20/02:00am 21.3 17.8 17.5 79 2.4 N 32 44 17 24 1005.0 1004.8 0.0
20/01:30am 21.2 17.3 17.0 77 2.6 N 33 44 18 24 1005.5 1005.3 0.0
20/01:00am 21.1 17.4 16.9 77 2.6 N 32 41 17 22 1006.6 1006.4 0.0
20/12:30am 21.0 18.0 16.8 77 2.6 N 28 39 15 21 1007.1 1006.9 0.0
20/12:00am 21.0 18.4 16.8 77 2.6 N 26 33 14 18 1007.8 1007.6 0.0
 
Date/Time
EDT
Temp
°C
App
Temp
°C
Dew
Point
°C
Rel
Hum
%
Delta-T
°C
Wind Press
QNH
hPa
Press
MSL
hPa
Rain since
9am
mm
Dir  Spd
km/h
Gust
km/h
Spd
kts
Gust
kts
19/11:30pm 21.1 18.4 16.7 76 2.7 N 26 33 14 18 1008.4 1008.2 0.0
19/11:00pm 21.1 18.4 16.5 75 2.8 N 26 33 14 18 1008.8 1008.6 0.0
19/10:30pm 21.2 19.3 16.6 75 2.8 N 22 32 12 17 1009.0 1008.9 0.0
19/10:00pm 21.5 19.2 16.7 74 2.9 N 24 32 13 17 1009.4 1009.3 0.0
19/09:30pm 21.1 18.4 16.7 76 2.7 N 26 37 14 20 1009.6 1009.5 0.0
19/09:00pm 21.3 18.9 16.3 73 3.0 N 24 33 13 18 1009.7 1009.6 0.0
19/08:30pm 20.7 17.8 16.1 75 2.8 NNE 26 32 14 17 1010.0 1009.9 0.0
19/08:00pm 21.0 18.5 16.2 74 2.9 NNE 24 32 13 17 1010.1 1010.0 0.0
19/07:30pm 21.2 19.2 15.5 70 3.4 NNE 20 24 11 13 1010.3 1010.2 0.0
19/07:00pm 20.7 18.0 15.5 72 3.1 NNE 24 30 13 16 1010.5 1010.4 0.0
19/06:30pm 21.0 19.0 14.9 68 3.6 NNE 19 24 10 13 1010.9 1010.8 0.0
19/06:00pm 21.0 18.7 14.2 65 4.0 NNE 19 24 10 13 1011.2 1011.1 0.0
19/05:30pm 20.9 19.0 14.1 65 4.0 NNE 17 20 9 11 1011.4 1011.3 0.0
19/05:00pm 20.9 19.0 14.1 65 4.0 NNE 17 24 9 13 1011.8 1011.7 0.0
19/04:30pm 21.1 19.3 14.5 66 3.9 NNE 17 20 9 11 1012.2 1012.1 0.0
19/04:00pm 20.8 18.8 14.0 65 3.9 NNE 17 22 9 12 1012.6 1012.5 0.0
19/03:30pm 21.3 19.4 14.2 64 4.1 NNE 17 20 9 11 1012.9 1012.8 0.0
19/03:00pm 21.7 19.7 13.9 61 4.5 NNE 17 20 9 11 1013.3 1013.1 0.0
19/02:30pm 21.7 20.3 13.3 59 4.8 NNE 13 17 7 9 1013.5 1013.3 0.0
19/02:00pm 21.4 20.1 12.5 57 5.0 N 11 13 6 7 1013.8 1013.6 0.0
19/01:30pm 21.1 20.3 13.0 60 4.6 NW 9 13 5 7 1014.0 1013.8 0.0
19/01:00pm 20.8 20.6 13.0 61 4.4 WNW 6 11 3 6 1014.4 1014.2 0.0
19/12:30pm 20.0 19.4 12.3 61 4.3 W 7 13 4 7 1014.7 1014.5 0.0
19/12:00pm 20.2 18.8 12.2 60 4.5 W 11 15 6 8 1015.0 1014.8 0.0
19/11:30am 20.1 19.2 12.6 62 4.2 SW 9 13 5 7 1015.1 1014.9 0.0
19/11:00am 19.3 18.2 11.8 62 4.2 SSW 9 13 5 7 1015.4 1015.2 0.0
19/10:30am 19.2 18.3 11.5 61 4.2 S 7 13 4 7 1015.5 1015.3 0.0
19/10:00am 19.6 18.0 11.4 59 4.5 SSW 11 15 6 8 1015.4 1015.2 0.0
19/09:30am 19.2 17.4 10.7 58 4.6 SSW 11 15 6 8 1015.6 1015.4 0.0
19/09:00am 19.3 17.0 10.6 57 4.7 SSW 13 17 7 9 1015.8 1015.6 0.0
19/08:30am 18.8 16.8 10.1 57 4.7 SW 11 17 6 9 1015.9 1015.7 0.0
19/08:00am 18.3 15.9 10.2 59 4.3 SSW 13 19 7 10 1015.8 1015.6 0.0
19/07:30am 17.9 15.6 10.3 61 4.1 SSW 13 17 7 9 1015.8 1015.6 0.0
19/07:00am 17.7 15.6 9.8 60 4.2 SW 11 17 6 9 1015.4 1015.2 0.0
19/06:30am 17.6 15.0 9.2 58 4.4 SW 13 17 7 9 1015.2 1015.0 0.0
19/06:00am 17.4 14.7 9.1 58 4.3 SW 13 17 7 9 1015.1 1014.9 0.0
19/05:30am 17.3 14.5 8.4 56 4.6 SW 13 17 7 9 1015.0 1014.8 0.0
19/05:00am 17.1 14.3 8.5 57 4.4 SW 13 17 7 9 1014.9 1014.7 0.0
19/04:30am 17.1 13.9 8.5 57 4.4 SW 15 19 8 10 1014.9 1014.7 0.0
19/04:00am 17.1 13.6 8.8 58 4.3 WSW 17 20 9 11 1014.9 1014.7 0.0
19/03:30am 17.3 13.8 10.2 63 3.8 SW 19 24 10 13 1015.1 1014.9 0.0
19/03:00am 17.4 13.4 10.5 64 3.7 SW 22 30 12 16 1015.2 1015.0 0.0
19/02:30am 17.9 14.0 10.8 63 3.8 SW 22 30 12 16 1015.6 1015.4 0.0
19/02:00am 18.0 13.6 10.4 61 4.1 SSW 24 32 13 17 1015.9 1015.7 0.0
19/01:30am 18.2 13.3 9.8 58 4.5 SSW 26 33 14 18 1016.2 1016.0 0.0
19/01:00am 18.2 12.7 10.6 61 4.1 S 30 37 16 20 1016.0 1015.8 0.0
19/12:30am 18.3 13.2 11.8 66 3.6 S 30 39 16 21 1016.1 1015.9 0.0
19/12:00am 18.4 13.4 12.2 67 3.4 S 30 39 16 21 1015.9 1015.7 0.0
 
Date/Time
EDT
Temp
°C
App
Temp
°C
Dew
Point
°C
Rel
Hum
%
Delta-T
°C
Wind Press
QNH
hPa
Press
MSL
hPa
Rain since
9am
mm
Dir  Spd
km/h
Gust
km/h
Spd
kts
Gust
kts
18/11:30pm 18.4 13.0 12.2 67 3.4 S 32 39 17 21 1015.8 1015.6 0.0
18/11:00pm 18.7 13.1 12.2 66 3.6 S 33 43 18 23 1015.6 1015.4 0.0
18/10:30pm 18.9 13.5 12.9 68 3.4 SSE 33 41 18 22 1015.4 1015.2 0.0
18/10:00pm 19.2 13.6 13.2 68 3.4 SSE 35 43 19 23 1014.7 1014.5 0.0
18/09:30pm 19.8 14.6 14.6 72 3.0 SSE 35 46 19 25 1014.1 1013.9 0.0
18/09:00pm 19.7 14.0 14.1 70 3.2 SSE 37 46 20 25 1013.4 1013.2 0.0
18/08:30pm 19.7 14.3 13.9 69 3.3 SSE 35 44 19 24 1012.8 1012.7 0.0
18/08:00pm 20.1 14.6 14.7 71 3.2 SSE 37 44 20 24 1012.0 1011.9 0.0
18/07:30pm 20.4 14.6 15.0 71 3.2 SSE 39 48 21 26 1011.1 1011.0 0.0
18/07:00pm 20.5 14.9 15.5 73 3.0 SSE 39 46 21 25 1010.3 1010.2 0.0
18/06:30pm 21.6 16.2 14.0 62 4.4 S 35 46 19 25 1009.9 1009.8 0.0
18/06:00pm 21.3 15.0 13.5 61 4.5 S 39 46 21 25 1009.4 1009.3 0.0
18/05:30pm 21.8 15.9 14.7 64 4.2 S 39 52 21 28 1009.0 1008.9 0.0
18/05:00pm 21.4 16.4 15.0 67 3.8 S 35 46 19 25 1009.2 1009.1 0.0
18/04:30pm 21.7 16.2 14.8 65 4.1 S 37 48 20 26 1008.9 1008.7 0.0
18/04:00pm 21.1 15.7 15.0 68 3.6 S 37 46 20 25 1008.5 1008.3 0.0
18/03:30pm 21.1 15.4 15.2 69 3.5 S 39 46 21 25 1008.1 1007.9 0.0
18/03:00pm 21.0 14.9 15.1 69 3.5 S 41 52 22 28 1007.7 1007.5 0.0
18/02:30pm 20.8 15.3 15.8 73 3.0 S 39 46 21 25 1007.9 1007.7 0.0
18/02:00pm 21.1 16.2 16.3 74 2.9 S 37 48 20 26 1007.5 1007.3 0.0
18/01:30pm 21.6 16.3 16.3 72 3.2 S 39 48 21 26 1007.5 1007.3 0.0
18/01:00pm 22.2 17.9 16.9 72 3.3 S 35 44 19 24 1007.5 1007.3 0.0
18/12:30pm 23.6 20.1 17.8 70 3.6 SSE 33 41 18 22 1007.2 1007.0 0.0
18/12:00pm 25.3 23.1 18.7 67 4.2 S 28 37 15 20 1007.3 1007.1 0.0
18/11:30am 24.6 21.3 18.3 68 4.0 SSE 33 39 18 21 1007.1 1006.9 0.0
18/11:00am 26.3 24.2 17.1 57 5.8 SE 24 30 13 16 1006.7 1006.5 0.0
18/10:30am 26.8 25.2 16.1 52 6.6 SE 19 22 10 12 1006.4 1006.2 0.0
18/10:00am 26.8 25.5 14.9 48 7.2 SE 15 17 8 9 1005.5 1005.3 0.0
18/09:30am 26.2 25.5 15.3 51 6.6 SSE 13 19 7 10 1005.8 1005.6 0.0
18/09:00am 26.1 24.6 15.2 51 6.6 SSE 17 20 9 11 1005.6 1005.4 0.0
18/08:30am 26.2 24.7 16.2 54 6.2 S 19 24 10 13 1005.7 1005.5 0.0
18/08:00am 25.7 24.0 16.3 56 5.8 S 20 24 11 13 1005.9 1005.7 0.0
18/07:30am 24.9 22.7 16.9 61 5.0 S 24 30 13 16 1005.8 1005.6 0.0
18/07:00am 24.4 21.2 16.4 61 4.9 S 28 33 15 18 1005.3 1005.1 0.0
18/06:30am 23.9 19.8 16.4 63 4.6 SSW 33 41 18 22 1005.1 1004.9 0.0
18/06:00am 23.8 19.3 17.3 67 4.0 S 37 46 20 25 1004.3 1004.1 0.0
18/05:30am 23.4 21.0 19.1 77 2.7 SSW 30 43 16 23 1003.7 1003.5 0.0
18/05:00am 23.1 22.7 21.7 92 0.9 SSW 26 32 14 17 1003.3 1003.1 0.0
18/04:30am 23.3 22.4 22.1 93 0.8 SSW 30 39 16 21 1002.9 1002.7 0.0
18/04:00am 23.5 25.0 22.7 95 0.5 SW 19 32 10 17 1002.5 1002.3 0.0
18/03:30am 23.6 26.3 22.9 96 0.5 SW 13 15 7 8 1002.0 1001.8 0.0
18/03:00am 23.9 26.8 23.2 96 0.5 SW 13 17 7 9 1002.3 1002.1 0.0
18/02:30am 23.9 26.2 23.4 97 0.3 SW 17 20 9 11 1003.1 1002.9 0.0
18/02:00am 24.1 26.9 23.6 97 0.3 SW 15 19 8 10 1003.6 1003.4 0.0
18/01:30am 23.7 26.2 23.2 97 0.3 SW 15 19 8 10 1004.0 1003.8 0.0
18/01:00am 23.9 27.2 23.2 96 0.5 SW 11 17 6 9 1004.5 1004.3 0.0
18/12:30am 24.4 28.0 23.7 96 0.5 SSW 11 13 6 7 1005.3 1005.1 0.0
18/12:00am 25.0 27.4 24.3 96 0.5 SE 19 20 10 11 1005.5 1005.3 0.0
 
Date/Time
EDT
Temp
°C
App
Temp
°C
Dew
Point
°C
Rel
Hum
%
Delta-T
°C
Wind Press
QNH
hPa
Press
MSL
hPa
Rain since
9am
mm
Dir  Spd
km/h
Gust
km/h
Spd
kts
Gust
kts
17/11:30pm 24.9 27.1 24.0 95 0.6 ESE 19 22 10 12 1005.5 1005.3 0.0
17/11:00pm 24.9 28.3 24.0 95 0.6 ESE 13 15 7 8 1006.2 1006.0 0.0
17/10:30pm 24.9 28.6 23.9 94 0.7 SE 11 13 6 7 1006.8 1006.6 0.0
17/10:00pm 25.0 29.9 23.6 92 1.0 NE 4 6 2 3 1006.9 1006.7 0.0
17/09:30pm 25.2 29.9 23.4 90 1.2 N 4 9 2 5 1006.9 1006.7 0.0
17/09:00pm 25.4 30.3 23.1 87 1.6 NNW 2 6 1 3 1007.0 1006.8 0.0

Latest Capital City Observations: Canberra | Sydney | Melbourne | Brisbane | Adelaide | Perth | Hobart | Darwin

Other Formats:

Comma delimited format used in spreadsheet applications
http://www.bom.gov.au/fwo/IDN60903/IDN60903.94939.axf

JavaScript Object Notation format (JSON) in row-major order
http://www.bom.gov.au/fwo/IDN60903/IDN60903.94939.json